Accueil
METAR-TAF:

METAR-TAF

Aéroports :

McKinley Park, Alaska, États-Unis

latitude: 63-44N, longitude: 148-55W, altitude: 524 m

Observation

Le bulletin a été fait il y a 39 minutes, à 23:11 UTC
Vent calme
Température -17°C
Humidité 84%
Pression 1003 hPa
Visibilité: 14.5 km
Quelques nuages à une hauteur de 2000 ft
Ciel couvert à une hauteur de 6000 ft
neige faible

METAR: PAIN 222311Z AUTO 00000KT 9SM -SN FEW020 OVC060 M17/M19 A2962 RMK AO2 P0000 FZRANO

Heure: 14:50 (23:50 UTC)


TAF: absent

Observations et prévisions météorologiques de plus de 4000 aéroports (messages METAR et TAF).

Les stations disponibles sont représentées par des disques jaunes et rouges sur la carte.

Passer la souris dessus pour voir le nom de la station.

Cliquer dessus pour voir les observations et prévisions météorologiques.

Pour changer de carte: cliquez sur les boutons verts avec une croix noire pour zoomer, sur le bouton vert avec un tiret pour effectuer un zoom arrière, ou sur les flèches vertes pour les cartes adjacentes.


METAR-TAF: